createdAt,value
2023-01-25T00:01:08.532Z,34.17
2023-01-25T00:03:40.388Z,29.30
2023-01-25T00:06:10.218Z,32.70
2023-01-25T00:08:39.727Z,29.92
2023-01-25T00:11:06.962Z,30.27
2023-01-25T00:13:36.450Z,34.78
2023-01-25T00:16:05.213Z,32.80
2023-01-25T00:18:32.532Z,33.65
2023-01-25T00:21:02.184Z,33.92
2023-01-25T00:23:37.092Z,36.38
2023-01-25T00:26:06.558Z,33.80
2023-01-25T00:28:34.071Z,29.85
2023-01-25T00:31:02.216Z,31.48
2023-01-25T00:33:51.501Z,29.88
2023-01-25T00:36:41.100Z,28.63
2023-01-25T00:39:12.978Z,30.52
2023-01-25T00:41:40.741Z,28.63
2023-01-25T00:44:08.233Z,33.47
2023-01-25T00:46:40.285Z,30.88
2023-01-25T00:49:15.851Z,30.13
2023-01-25T00:51:43.095Z,30.05
2023-01-25T00:54:10.343Z,33.50
2023-01-25T00:56:37.577Z,29.50
2023-01-25T00:59:04.823Z,32.25
2023-01-25T01:01:32.369Z,34.97
2023-01-25T01:04:01.905Z,35.47
2023-01-25T01:06:31.241Z,35.65
2023-01-25T01:08:58.517Z,30.55
2023-01-25T01:11:25.748Z,36.92
2023-01-25T01:13:53.023Z,34.47
2023-01-25T01:16:20.325Z,31.90
2023-01-25T01:18:47.637Z,38.47
2023-01-25T01:21:15.161Z,39.67
2023-01-25T01:23:48.014Z,32.00
2023-01-25T01:26:17.116Z,38.75
2023-01-25T01:28:44.362Z,36.97
2023-01-25T01:31:14.760Z,33.03
2023-01-25T01:33:42.020Z,35.60
2023-01-25T01:36:17.517Z,37.38
2023-01-25T01:38:46.079Z,30.77
2023-01-25T01:41:13.787Z,34.40
2023-01-25T01:43:43.988Z,38.45
2023-01-25T01:46:27.932Z,35.65
2023-01-25T01:49:05.903Z,35.50
2023-01-25T01:51:54.969Z,33.22
2023-01-25T01:54:34.517Z,34.55
2023-01-25T01:57:18.316Z,36.88
2023-01-25T01:59:59.992Z,34.72
2023-01-25T02:02:27.492Z,34.42
2023-01-25T02:05:06.715Z,33.45
2023-01-25T02:07:37.675Z,36.50
2023-01-25T02:10:10.513Z,35.10
2023-01-25T02:12:38.364Z,29.55
2023-01-25T02:15:07.088Z,28.83
2023-01-25T02:17:41.006Z,29.02
2023-01-25T02:20:32.892Z,39.55
2023-01-25T02:23:23.422Z,32.40
2023-01-25T02:25:51.191Z,33.03
2023-01-25T02:28:43.213Z,32.63
2023-01-25T02:31:10.591Z,29.75
2023-01-25T02:33:38.019Z,34.85
2023-01-25T02:36:08.289Z,37.58
2023-01-25T02:38:39.997Z,36.33
2023-01-25T02:41:12.942Z,39.22
2023-01-25T02:43:40.218Z,33.65
2023-01-25T02:46:33.370Z,34.72
2023-01-25T02:49:04.428Z,37.47
2023-01-25T02:51:35.172Z,37.17
2023-01-25T02:54:04.951Z,34.88
2023-01-25T02:56:32.415Z,42.67
2023-01-25T02:59:05.505Z,41.03
2023-01-25T03:01:39.033Z,40.60
2023-01-25T03:04:07.285Z,38.38
2023-01-25T03:06:35.594Z,40.30
2023-01-25T03:09:04.476Z,39.80
2023-01-25T03:11:32.050Z,45.15
2023-01-25T03:13:59.447Z,40.13
2023-01-25T03:16:31.653Z,43.60
2023-01-25T03:18:58.937Z,28.27
2023-01-25T03:21:26.363Z,41.20
2023-01-25T03:24:05.944Z,40.47
2023-01-25T03:26:53.134Z,36.45
2023-01-25T03:29:20.581Z,40.80
2023-01-25T03:31:52.676Z,34.30
2023-01-25T03:34:22.382Z,37.72
2023-01-25T03:36:54.225Z,34.22
2023-01-25T03:39:21.492Z,40.67
2023-01-25T03:41:50.946Z,36.53
2023-01-25T03:44:20.716Z,37.67
2023-01-25T03:46:48.105Z,38.90
2023-01-25T03:49:15.452Z,40.00
2023-01-25T03:51:42.680Z,36.75
2023-01-25T03:54:12.114Z,36.00
2023-01-25T03:56:41.506Z,38.42
2023-01-25T03:59:08.736Z,35.15
2023-01-25T04:01:36.158Z,38.15
2023-01-25T04:04:06.170Z,38.88
2023-01-25T04:06:36.033Z,37.20
2023-01-25T04:09:06.408Z,35.75
2023-01-25T04:11:36.161Z,37.67
2023-01-25T04:14:03.460Z,34.00
2023-01-25T04:16:31.577Z,37.30
2023-01-25T04:18:58.866Z,34.40
2023-01-25T04:21:26.103Z,34.85
2023-01-25T04:23:55.619Z,34.28
2023-01-25T04:26:22.851Z,30.65
2023-01-25T04:28:50.304Z,35.03
2023-01-25T04:31:20.001Z,35.50
2023-01-25T04:33:48.336Z,37.28
2023-01-25T04:36:16.692Z,36.13
2023-01-25T04:38:46.135Z,36.40
2023-01-25T04:41:13.404Z,35.63
2023-01-25T04:43:40.758Z,38.42
2023-01-25T04:46:11.688Z,37.45
2023-01-25T04:48:41.674Z,39.20
2023-01-25T04:51:11.162Z,41.95
2023-01-25T04:53:38.425Z,35.25
2023-01-25T04:56:06.349Z,35.25
2023-01-25T04:58:33.610Z,37.97
2023-01-25T05:01:02.462Z,31.63
2023-01-25T05:03:32.252Z,38.53
2023-01-25T05:05:59.490Z,37.17
2023-01-25T05:08:26.971Z,31.80
2023-01-25T05:10:54.242Z,33.30
2023-01-25T05:13:21.567Z,34.33
2023-01-25T05:15:51.177Z,32.00
2023-01-25T05:18:20.853Z,32.65
2023-01-25T05:20:48.123Z,34.67
2023-01-25T05:23:17.830Z,37.72
2023-01-25T05:26:03.893Z,37.28
2023-01-25T05:28:31.115Z,35.05
2023-01-25T05:30:58.488Z,37.45
2023-01-25T05:33:28.321Z,39.80
2023-01-25T05:35:56.281Z,34.75
2023-01-25T05:38:23.525Z,34.90
2023-01-25T05:40:50.778Z,32.22
2023-01-25T05:43:18.185Z,35.25
2023-01-25T05:45:51.593Z,34.88
2023-01-25T05:48:18.876Z,35.03
2023-01-25T05:50:48.254Z,32.65
2023-01-25T05:53:15.636Z,34.95
2023-01-25T05:55:42.911Z,40.40
2023-01-25T05:58:10.202Z,35.92
2023-01-25T06:00:37.484Z,37.80
2023-01-25T06:03:04.873Z,39.05
2023-01-25T06:05:32.236Z,34.17
2023-01-25T06:08:01.754Z,31.38
2023-01-25T06:10:31.123Z,31.70
2023-01-25T06:12:59.209Z,38.55
2023-01-25T06:15:29.316Z,36.22
2023-01-25T06:17:56.912Z,36.13
2023-01-25T06:20:27.026Z,38.63
2023-01-25T06:22:56.831Z,38.20
2023-01-25T06:25:24.141Z,37.03
2023-01-25T06:27:55.366Z,35.97
2023-01-25T06:30:22.635Z,37.13
2023-01-25T06:32:50.877Z,37.95
2023-01-25T06:35:19.970Z,34.85
2023-01-25T06:37:47.509Z,34.70
2023-01-25T06:40:17.286Z,38.55
2023-01-25T06:42:46.844Z,38.13
2023-01-25T06:45:14.266Z,40.78
2023-01-25T06:47:41.671Z,41.38
2023-01-25T06:50:09.950Z,36.88
2023-01-25T06:52:39.474Z,35.50
2023-01-25T06:55:10.299Z,43.53
2023-01-25T06:57:37.705Z,37.75
2023-01-25T07:00:06.018Z,39.47
2023-01-25T07:02:38.773Z,42.28
2023-01-25T07:05:06.740Z,30.00
2023-01-25T07:07:36.743Z,35.40
2023-01-25T07:10:04.268Z,34.60
2023-01-25T07:12:33.707Z,37.17
2023-01-25T07:15:03.172Z,38.92
2023-01-25T07:17:30.415Z,38.92
2023-01-25T07:20:00.154Z,36.53
2023-01-25T07:22:27.389Z,38.85
2023-01-25T07:24:58.102Z,40.30
2023-01-25T07:27:25.328Z,34.20
2023-01-25T07:29:52.701Z,35.45
2023-01-25T07:32:20.049Z,38.25
2023-01-25T07:34:47.279Z,36.15
2023-01-25T07:37:17.364Z,38.75
2023-01-25T07:39:49.497Z,39.05
2023-01-25T07:42:19.216Z,35.30
2023-01-25T07:44:46.475Z,35.38
2023-01-25T07:47:16.306Z,36.63
2023-01-25T07:49:45.827Z,37.88
2023-01-25T07:52:16.549Z,37.15
2023-01-25T07:54:43.883Z,40.10
2023-01-25T07:57:11.218Z,39.67
2023-01-25T07:59:38.457Z,40.30
2023-01-25T08:02:05.991Z,35.83
2023-01-25T08:04:35.797Z,38.75
2023-01-25T08:07:03.062Z,38.63
2023-01-25T08:09:30.457Z,38.35
2023-01-25T08:11:57.810Z,39.08
2023-01-25T08:14:27.514Z,38.35
2023-01-25T08:16:56.948Z,39.28
2023-01-25T08:19:26.960Z,41.38
2023-01-25T08:21:54.270Z,38.15
2023-01-25T08:24:25.496Z,42.47
2023-01-25T08:26:52.872Z,40.60
2023-01-25T08:29:20.331Z,39.55
2023-01-25T08:31:47.701Z,36.35
2023-01-25T08:34:15.187Z,40.20
2023-01-25T08:36:47.118Z,39.35
2023-01-25T08:39:14.379Z,41.30
2023-01-25T08:41:42.670Z,42.55
2023-01-25T08:44:09.975Z,36.80
2023-01-25T08:46:37.251Z,38.15
2023-01-25T08:49:05.074Z,39.33
2023-01-25T08:51:33.494Z,38.88
2023-01-25T08:54:08.462Z,37.97
2023-01-25T08:56:37.984Z,37.08
2023-01-25T08:59:08.054Z,37.22
2023-01-25T09:01:38.472Z,41.10
2023-01-25T09:04:05.819Z,38.60
2023-01-25T09:06:36.071Z,36.10
2023-01-25T09:09:04.792Z,41.40
2023-01-25T09:11:34.465Z,38.05
2023-01-25T09:14:04.145Z,32.85
2023-01-25T09:16:34.029Z,31.52
2023-01-25T09:19:03.646Z,39.30
2023-01-25T09:21:34.244Z,35.75
2023-01-25T09:24:06.645Z,37.95
2023-01-25T09:26:40.172Z,36.97
2023-01-25T09:29:08.719Z,39.72
2023-01-25T09:31:40.588Z,39.95
2023-01-25T09:34:08.984Z,41.53
2023-01-25T09:36:36.957Z,40.00
2023-01-25T09:39:07.106Z,40.80
2023-01-25T09:42:14.980Z,39.17
2023-01-25T09:45:00.925Z,37.83
2023-01-25T09:47:39.578Z,35.28
2023-01-25T09:50:36.628Z,42.65
2023-01-25T09:53:12.898Z,41.17
2023-01-25T09:55:41.541Z,42.08
2023-01-25T09:58:26.347Z,47.45
2023-01-25T10:01:37.624Z,36.80
2023-01-25T10:04:22.179Z,39.00
2023-01-25T10:09:47.696Z,39.20
2023-01-25T10:12:24.013Z,40.38
2023-01-25T10:14:54.120Z,38.58
2023-01-25T10:17:41.344Z,34.53
2023-01-25T10:20:42.295Z,43.90
2023-01-25T10:23:41.060Z,39.53
2023-01-25T10:26:37.155Z,44.17
2023-01-25T10:29:13.552Z,35.90
2023-01-25T10:31:40.819Z,39.47
2023-01-25T10:34:22.850Z,42.45
2023-01-25T10:37:05.102Z,42.03
2023-01-25T10:39:39.153Z,49.15
2023-01-25T10:42:10.218Z,39.95
2023-01-25T10:44:37.893Z,40.60
2023-01-25T10:47:26.310Z,36.78
2023-01-25T10:50:00.098Z,36.53
2023-01-25T10:52:30.435Z,39.95
2023-01-25T10:55:16.350Z,43.95
2023-01-25T10:57:51.932Z,39.88
2023-01-25T11:00:37.665Z,37.97
2023-01-25T11:03:05.371Z,40.17
2023-01-25T11:05:39.501Z,37.67
2023-01-25T11:08:26.006Z,40.55
2023-01-25T11:10:54.100Z,40.25
2023-01-25T11:13:29.931Z,41.90
2023-01-25T11:16:04.883Z,42.80
2023-01-25T11:18:36.877Z,38.50
2023-01-25T11:21:22.158Z,43.47
2023-01-25T11:24:25.260Z,39.97
2023-01-25T11:27:13.809Z,41.35
2023-01-25T11:29:47.083Z,48.17
2023-01-25T11:34:53.321Z,35.63
2023-01-25T11:37:29.446Z,43.00
2023-01-25T11:40:21.234Z,42.33
2023-01-25T11:43:03.628Z,40.13
2023-01-25T11:45:43.111Z,41.90
2023-01-25T11:48:16.790Z,40.65
2023-01-25T11:51:08.751Z,37.63
2023-01-25T11:53:41.408Z,42.38
2023-01-25T11:56:21.739Z,39.70
2023-01-25T11:59:03.938Z,43.25
2023-01-25T12:01:57.007Z,41.75
2023-01-25T12:05:02.312Z,42.08
2023-01-25T12:07:34.495Z,41.00
2023-01-25T12:10:19.572Z,35.65
2023-01-25T12:13:14.968Z,39.72
2023-01-25T12:16:00.888Z,41.28
2023-01-25T12:18:57.611Z,40.35
2023-01-25T12:22:00.737Z,43.25
2023-01-25T12:24:58.697Z,35.33
2023-01-25T12:27:28.931Z,39.75
2023-01-25T12:30:43.696Z,40.05
2023-01-25T12:33:34.105Z,39.30
2023-01-25T12:36:10.653Z,34.83
2023-01-25T12:39:02.049Z,30.50
2023-01-25T12:41:57.941Z,37.47
2023-01-25T12:44:32.823Z,36.40
2023-01-25T12:47:25.029Z,37.55
2023-01-25T12:49:55.714Z,36.70
2023-01-25T12:52:35.539Z,37.42
2023-01-25T12:55:05.422Z,37.65
2023-01-25T12:57:47.655Z,38.17
2023-01-25T13:00:36.356Z,37.17
2023-01-25T13:03:33.500Z,36.33
2023-01-25T13:06:22.212Z,36.10
2023-01-25T13:08:59.178Z,31.92
2023-01-25T13:11:37.624Z,43.55
2023-01-25T13:14:29.317Z,38.97
2023-01-25T13:17:19.564Z,35.47
2023-01-25T13:19:49.747Z,43.53
2023-01-25T13:22:43.032Z,36.97
2023-01-25T13:25:22.356Z,36.72
2023-01-25T13:27:53.042Z,37.65
2023-01-25T13:30:32.169Z,40.13
2023-01-25T13:33:04.635Z,41.45
2023-01-25T13:35:40.203Z,37.93
2023-01-25T13:38:28.728Z,39.50
2023-01-25T13:41:17.225Z,39.63
2023-01-25T13:43:51.986Z,44.92
2023-01-25T13:46:24.859Z,35.72
2023-01-25T13:49:04.198Z,40.13
2023-01-25T13:51:37.884Z,41.60
2023-01-25T13:54:05.481Z,44.08
2023-01-25T13:56:35.550Z,40.97
2023-01-25T13:59:03.460Z,41.22
2023-01-25T14:01:33.259Z,42.15
2023-01-25T14:04:04.654Z,39.22
2023-01-25T14:06:37.796Z,43.97
2023-01-25T14:09:16.239Z,43.22
2023-01-25T14:11:49.776Z,48.83
2023-01-25T14:14:33.090Z,49.08
2023-01-25T14:17:22.062Z,41.53
2023-01-25T14:19:53.284Z,38.40
2023-01-25T14:22:28.903Z,42.45
2023-01-25T14:25:12.795Z,44.55
2023-01-25T14:27:48.078Z,45.42
2023-01-25T14:30:22.268Z,40.85
2023-01-25T14:32:51.468Z,40.70
2023-01-25T14:35:42.736Z,45.20
2023-01-25T14:38:37.170Z,42.38
2023-01-25T14:41:14.069Z,44.08
2023-01-25T14:43:48.348Z,52.65
2023-01-25T14:46:29.587Z,46.03
2023-01-25T14:49:11.913Z,48.38
2023-01-25T14:52:14.460Z,42.55
2023-01-25T14:54:47.882Z,52.90
2023-01-25T14:57:40.082Z,43.58
2023-01-25T15:00:20.865Z,49.75
2023-01-25T15:02:55.127Z,49.05
2023-01-25T15:05:25.455Z,49.05
2023-01-25T15:07:57.229Z,50.60
2023-01-25T15:10:28.820Z,48.90
2023-01-25T15:13:15.433Z,47.95
2023-01-25T15:16:00.009Z,48.50
2023-01-25T15:18:45.392Z,44.75
2023-01-25T15:21:16.807Z,49.83
2023-01-25T15:23:46.600Z,47.05
2023-01-25T15:26:25.582Z,54.75
2023-01-25T15:28:58.994Z,51.97
2023-01-25T15:31:33.742Z,48.25
2023-01-25T15:34:01.966Z,53.13
2023-01-25T15:36:31.110Z,55.55
2023-01-25T15:38:58.413Z,55.70
2023-01-25T15:41:27.936Z,56.03
2023-01-25T15:44:01.479Z,56.75
2023-01-25T15:46:31.809Z,53.35
2023-01-25T15:49:00.042Z,53.03
2023-01-25T15:51:34.637Z,60.47
2023-01-25T15:54:03.021Z,72.68
2023-01-25T15:56:37.882Z,57.10
2023-01-25T15:59:13.521Z,49.45
2023-01-25T16:01:40.862Z,57.45
2023-01-25T16:04:10.940Z,63.38
2023-01-25T16:06:46.429Z,56.08
2023-01-25T16:09:25.072Z,53.60
2023-01-25T16:11:54.905Z,56.10
2023-01-25T16:14:31.949Z,63.13
2023-01-25T16:17:05.642Z,54.20
2023-01-25T16:19:33.752Z,55.67
2023-01-25T16:22:03.359Z,62.88
2023-01-25T16:24:30.622Z,57.03
2023-01-25T16:26:59.311Z,55.88
2023-01-25T16:29:27.310Z,53.90
2023-01-25T16:31:55.953Z,58.38
2023-01-25T16:34:23.706Z,58.38
2023-01-25T16:36:53.287Z,50.95
2023-01-25T16:39:22.265Z,53.08
2023-01-25T16:41:52.551Z,59.80
2023-01-25T16:44:22.338Z,57.92
2023-01-25T16:46:52.285Z,56.25
2023-01-25T16:49:26.333Z,51.42
2023-01-25T16:52:00.265Z,59.42
2023-01-25T16:54:27.713Z,61.63
2023-01-25T16:56:55.565Z,57.05
2023-01-25T16:59:25.775Z,59.17
2023-01-25T17:01:55.192Z,52.92
2023-01-25T17:04:22.516Z,64.90
2023-01-25T17:06:50.526Z,63.08
2023-01-25T17:09:24.873Z,65.82
2023-01-25T17:11:56.005Z,61.33
2023-01-25T17:14:23.372Z,68.13
2023-01-25T17:16:52.237Z,72.57
2023-01-25T17:19:20.303Z,66.15
2023-01-25T17:21:50.160Z,65.57
2023-01-25T17:24:21.320Z,69.28
2023-01-25T17:26:48.617Z,63.95
2023-01-25T17:29:18.371Z,72.28
2023-01-25T17:31:47.958Z,72.38
2023-01-25T17:34:21.700Z,69.40
2023-01-25T17:36:52.874Z,74.30
2023-01-25T17:39:21.021Z,75.93
2023-01-25T17:41:50.178Z,80.13
2023-01-25T17:44:23.111Z,78.80
2023-01-25T17:46:50.962Z,76.20
2023-01-25T17:49:18.842Z,69.25
2023-01-25T17:51:46.295Z,74.38
2023-01-25T17:54:16.262Z,72.65
2023-01-25T17:56:43.629Z,73.93
2023-01-25T17:59:13.386Z,74.00
2023-01-25T18:01:44.120Z,73.70
2023-01-25T18:04:17.980Z,70.43
2023-01-25T18:06:47.670Z,66.57
2023-01-25T18:09:15.065Z,74.93
2023-01-25T18:11:47.923Z,71.68
2023-01-25T18:14:16.968Z,72.78
2023-01-25T18:16:44.859Z,63.60
2023-01-25T18:19:14.785Z,78.03
2023-01-25T18:21:43.598Z,85.93
2023-01-25T18:24:26.365Z,75.68
2023-01-25T18:27:03.696Z,68.13
2023-01-25T18:29:55.560Z,73.88
2023-01-25T18:32:25.714Z,63.63
2023-01-25T18:34:58.554Z,75.05
2023-01-25T18:37:29.548Z,70.35
2023-01-25T18:39:57.210Z,74.85
2023-01-25T18:42:29.381Z,66.20
2023-01-25T18:45:01.336Z,72.30
2023-01-25T18:47:28.642Z,75.28
2023-01-25T18:49:56.037Z,76.43
2023-01-25T18:52:23.910Z,64.70
2023-01-25T18:54:51.796Z,70.05
2023-01-25T18:57:19.772Z,67.90
2023-01-25T18:59:52.227Z,61.53
2023-01-25T19:02:23.600Z,72.03
2023-01-25T19:04:51.110Z,66.90
2023-01-25T19:07:18.488Z,62.50
2023-01-25T19:09:48.109Z,66.85
2023-01-25T19:12:15.603Z,69.38
2023-01-25T19:14:47.844Z,53.15
2023-01-25T19:17:17.602Z,62.28
2023-01-25T19:19:49.459Z,57.53
2023-01-25T19:22:19.107Z,62.50
2023-01-25T19:24:46.529Z,65.22
2023-01-25T19:27:16.047Z,68.68
2023-01-25T19:29:45.534Z,65.95
2023-01-25T19:32:15.434Z,67.43
2023-01-25T19:34:45.290Z,59.92
2023-01-25T19:37:15.058Z,65.18
2023-01-25T19:39:43.143Z,61.35
2023-01-25T19:42:10.409Z,63.78
2023-01-25T19:44:40.137Z,69.95
2023-01-25T19:47:09.924Z,79.47
2023-01-25T19:49:37.196Z,64.85
2023-01-25T19:52:06.592Z,66.10
2023-01-25T19:54:36.457Z,66.40
2023-01-25T19:57:03.800Z,65.30
2023-01-25T19:59:34.071Z,65.30
2023-01-25T20:02:01.428Z,65.00
2023-01-25T20:04:28.767Z,66.05
2023-01-25T20:06:56.055Z,65.53
2023-01-25T20:09:27.794Z,68.68
2023-01-25T20:11:57.363Z,63.22
2023-01-25T20:14:29.913Z,62.65
2023-01-25T20:16:57.227Z,65.30
2023-01-25T20:19:24.545Z,62.83
2023-01-25T20:21:51.955Z,69.68
2023-01-25T20:24:19.390Z,60.42
2023-01-25T20:26:46.745Z,64.60
2023-01-25T20:29:16.937Z,58.58
2023-01-25T20:31:45.958Z,59.67
2023-01-25T20:34:22.233Z,64.78
2023-01-25T20:36:51.059Z,59.78
2023-01-25T20:39:23.117Z,68.82
2023-01-25T20:41:53.492Z,59.60
2023-01-25T20:44:21.445Z,63.75
2023-01-25T20:46:49.937Z,65.13
2023-01-25T20:49:19.785Z,59.03
2023-01-25T20:51:47.744Z,63.83
2023-01-25T20:54:15.809Z,61.17
2023-01-25T20:56:50.272Z,68.07
2023-01-25T20:59:20.089Z,64.03
2023-01-25T21:01:47.743Z,66.80
2023-01-25T21:04:15.208Z,65.68
2023-01-25T21:06:42.990Z,58.25
2023-01-25T21:09:13.714Z,63.08
2023-01-25T21:11:41.102Z,59.70
2023-01-25T21:14:08.393Z,62.92
2023-01-25T21:16:36.237Z,54.45
2023-01-25T21:19:08.929Z,57.95
2023-01-25T21:21:38.614Z,59.40
2023-01-25T21:24:06.443Z,64.30
2023-01-25T21:26:35.408Z,72.78
2023-01-25T21:29:04.537Z,58.83
2023-01-25T21:31:38.281Z,61.83
2023-01-25T21:34:11.928Z,59.88
2023-01-25T21:36:39.693Z,56.45
2023-01-25T21:39:07.738Z,55.88
2023-01-25T21:41:35.114Z,53.10
2023-01-25T21:44:21.716Z,54.08
2023-01-25T21:49:57.015Z,52.17
2023-01-25T21:52:28.968Z,60.78
2023-01-25T21:54:56.218Z,58.22
2023-01-25T21:57:23.507Z,66.18
2023-01-25T21:59:55.249Z,56.95
2023-01-25T22:02:22.660Z,51.38
2023-01-25T22:04:52.266Z,56.65
2023-01-25T22:07:21.726Z,60.85
2023-01-25T22:09:53.894Z,60.25
2023-01-25T22:12:21.138Z,63.90
2023-01-25T22:14:50.886Z,69.78
2023-01-25T22:17:19.712Z,67.45
2023-01-25T22:19:46.947Z,68.55
2023-01-25T22:22:14.238Z,63.17
2023-01-25T22:24:41.594Z,61.63
2023-01-25T22:27:20.803Z,56.08
2023-01-25T22:29:50.276Z,63.60
2023-01-25T22:32:17.863Z,56.00
2023-01-25T22:34:47.265Z,61.05
2023-01-25T22:37:17.730Z,62.90
2023-01-25T22:39:45.492Z,67.82
2023-01-25T22:42:12.786Z,57.97
2023-01-25T22:44:46.928Z,67.47
2023-01-25T22:47:16.452Z,61.80
2023-01-25T22:49:43.752Z,68.10
2023-01-25T22:52:10.979Z,59.10
2023-01-25T22:54:38.243Z,65.38
2023-01-25T22:57:07.620Z,64.50
2023-01-25T22:59:37.255Z,61.03
2023-01-25T23:02:04.503Z,69.78
2023-01-25T23:04:31.826Z,64.50
2023-01-25T23:07:02.884Z,73.47
2023-01-25T23:09:32.626Z,72.38
2023-01-25T23:11:59.822Z,72.32
2023-01-25T23:14:49.840Z,65.95
2023-01-25T23:17:41.245Z,63.42
2023-01-25T23:20:14.418Z,69.68
2023-01-25T23:22:41.767Z,71.93
2023-01-25T23:25:10.004Z,70.18
2023-01-25T23:27:39.535Z,63.90
2023-01-25T23:30:07.622Z,65.43
2023-01-25T23:32:39.779Z,70.38
2023-01-25T23:35:07.607Z,60.42
2023-01-25T23:37:34.829Z,68.32
2023-01-25T23:40:02.199Z,62.70
2023-01-25T23:42:31.578Z,66.90
2023-01-25T23:45:00.938Z,70.18
2023-01-25T23:47:30.909Z,67.70
2023-01-25T23:49:58.312Z,63.05
2023-01-25T23:52:25.642Z,56.70
2023-01-25T23:54:52.964Z,61.45
2023-01-25T23:57:21.506Z,66.28
2023-01-25T23:59:51.127Z,67.68
